sensor_id;sensor_type;location;lat;lon;timestamp;pressure;altitude;pressure_sealevel;temperature;humidity
22018;BME280;11173;51.050;7.108;2022-09-11T00:04:58;99541.25;;;15.46;71.77
22018;BME280;11173;51.050;7.108;2022-09-11T00:10:19;99535.81;;;15.51;71.78
22018;BME280;11173;51.050;7.108;2022-09-11T00:15:43;99536.34;;;15.59;71.90
22018;BME280;11173;51.050;7.108;2022-09-11T00:21:04;99544.03;;;15.68;71.72
22018;BME280;11173;51.050;7.108;2022-09-11T00:26:26;99544.69;;;15.72;71.57
22018;BME280;11173;51.050;7.108;2022-09-11T00:31:47;99552.53;;;15.77;71.38
22018;BME280;11173;51.050;7.108;2022-09-11T00:37:08;99556.00;;;15.81;71.33
22018;BME280;11173;51.050;7.108;2022-09-11T00:42:29;99550.22;;;15.85;71.47
22018;BME280;11173;51.050;7.108;2022-09-11T00:47:50;99550.56;;;15.87;71.68
22018;BME280;11173;51.050;7.108;2022-09-11T00:53:14;99546.97;;;15.86;71.40
22018;BME280;11173;51.050;7.108;2022-09-11T00:58:38;99556.81;;;15.91;71.54
22018;BME280;11173;51.050;7.108;2022-09-11T01:04:03;99555.13;;;15.94;71.57
22018;BME280;11173;51.050;7.108;2022-09-11T01:09:25;99561.06;;;15.96;71.81
22018;BME280;11173;51.050;7.108;2022-09-11T01:14:59;99566.88;;;16.01;71.41
22018;BME280;11173;51.050;7.108;2022-09-11T01:26:47;99580.31;;;16.06;71.15
22018;BME280;11173;51.050;7.108;2022-09-11T01:32:23;99577.19;;;16.04;70.95
22018;BME280;11173;51.050;7.108;2022-09-11T01:38:05;99588.09;;;16.02;71.22
22018;BME280;11173;51.050;7.108;2022-09-11T01:43:30;99591.38;;;16.01;70.99
22018;BME280;11173;51.050;7.108;2022-09-11T01:49:02;99591.84;;;15.99;71.39
22018;BME280;11173;51.050;7.108;2022-09-11T01:54:26;99599.16;;;15.97;71.65
22018;BME280;11173;51.050;7.108;2022-09-11T01:59:53;99605.91;;;15.99;71.23
22018;BME280;11173;51.050;7.108;2022-09-11T02:05:20;99599.34;;;16.02;71.39
22018;BME280;11173;51.050;7.108;2022-09-11T02:10:46;99608.38;;;15.97;71.26
22018;BME280;11173;51.050;7.108;2022-09-11T02:21:57;99607.13;;;15.98;71.14
22018;BME280;11173;51.050;7.108;2022-09-11T02:27:23;99613.53;;;15.99;71.52
22018;BME280;11173;51.050;7.108;2022-09-11T02:32:44;99612.75;;;15.98;71.07
22018;BME280;11173;51.050;7.108;2022-09-11T02:38:16;99619.75;;;15.94;71.25
22018;BME280;11173;51.050;7.108;2022-09-11T02:43:52;99613.59;;;15.86;71.45
22018;BME280;11173;51.050;7.108;2022-09-11T02:49:24;99618.25;;;15.80;71.25
22018;BME280;11173;51.050;7.108;2022-09-11T02:55:11;99618.47;;;15.73;71.14
22018;BME280;11173;51.050;7.108;2022-09-11T03:00:39;99620.63;;;15.68;71.59
22018;BME280;11173;51.050;7.108;2022-09-11T03:05:59;99627.63;;;15.64;71.44
22018;BME280;11173;51.050;7.108;2022-09-11T03:11:20;99628.06;;;15.62;71.75
22018;BME280;11173;51.050;7.108;2022-09-11T03:16:41;99634.94;;;15.61;71.54
22018;BME280;11173;51.050;7.108;2022-09-11T03:22:02;99634.13;;;15.61;71.69
22018;BME280;11173;51.050;7.108;2022-09-11T03:27:22;99629.78;;;15.60;71.83
22018;BME280;11173;51.050;7.108;2022-09-11T03:32:43;99633.34;;;15.60;71.71
22018;BME280;11173;51.050;7.108;2022-09-11T03:38:03;99630.56;;;15.60;71.97
22018;BME280;11173;51.050;7.108;2022-09-11T03:43:24;99638.19;;;15.60;72.04
22018;BME280;11173;51.050;7.108;2022-09-11T03:48:45;99640.56;;;15.61;71.64
22018;BME280;11173;51.050;7.108;2022-09-11T03:54:06;99642.13;;;15.62;71.49
22018;BME280;11173;51.050;7.108;2022-09-11T03:59:27;99649.09;;;15.58;71.17
22018;BME280;11173;51.050;7.108;2022-09-11T04:04:48;99639.03;;;15.47;71.11
22018;BME280;11173;51.050;7.108;2022-09-11T04:10:09;99651.75;;;15.39;70.82
22018;BME280;11173;51.050;7.108;2022-09-11T04:15:30;99653.38;;;15.27;71.19
22018;BME280;11173;51.050;7.108;2022-09-11T04:20:52;99666.25;;;15.25;70.88
22018;BME280;11173;51.050;7.108;2022-09-11T04:26:15;99654.97;;;15.16;70.89
22018;BME280;11173;51.050;7.108;2022-09-11T04:31:36;99659.69;;;15.06;71.63
22018;BME280;11173;51.050;7.108;2022-09-11T04:36:57;99654.31;;;14.99;71.43
22018;BME280;11173;51.050;7.108;2022-09-11T04:42:18;99658.91;;;14.92;71.84
22018;BME280;11173;51.050;7.108;2022-09-11T04:47:39;99659.50;;;14.87;72.00
22018;BME280;11173;51.050;7.108;2022-09-11T04:53:00;99669.47;;;14.88;72.18
22018;BME280;11173;51.050;7.108;2022-09-11T04:58:21;99684.75;;;14.87;72.34
22018;BME280;11173;51.050;7.108;2022-09-11T05:03:41;99690.69;;;14.89;71.95
22018;BME280;11173;51.050;7.108;2022-09-11T05:09:04;99690.00;;;14.85;71.77
22018;BME280;11173;51.050;7.108;2022-09-11T05:14:27;99689.69;;;14.83;72.31
22018;BME280;11173;51.050;7.108;2022-09-11T05:19:48;99693.66;;;14.82;72.05
22018;BME280;11173;51.050;7.108;2022-09-11T05:25:08;99694.44;;;14.83;72.17
22018;BME280;11173;51.050;7.108;2022-09-11T05:30:29;99704.88;;;14.82;72.59
22018;BME280;11173;51.050;7.108;2022-09-11T05:35:51;99707.63;;;14.86;72.41
22018;BME280;11173;51.050;7.108;2022-09-11T05:41:12;99715.00;;;14.92;72.59
22018;BME280;11173;51.050;7.108;2022-09-11T05:46:34;99722.97;;;14.94;72.00
22018;BME280;11173;51.050;7.108;2022-09-11T05:51:55;99727.25;;;14.99;72.34
22018;BME280;11173;51.050;7.108;2022-09-11T05:57:15;99726.00;;;15.00;72.17
22018;BME280;11173;51.050;7.108;2022-09-11T06:02:36;99743.97;;;15.02;72.47
22018;BME280;11173;51.050;7.108;2022-09-11T06:07:57;99750.69;;;15.05;72.29
22018;BME280;11173;51.050;7.108;2022-09-11T06:13:17;99737.56;;;15.02;72.49
22018;BME280;11173;51.050;7.108;2022-09-11T06:18:38;99759.78;;;15.09;72.06
22018;BME280;11173;51.050;7.108;2022-09-11T06:23:59;99777.28;;;15.13;72.28
22018;BME280;11173;51.050;7.108;2022-09-11T06:29:19;99763.59;;;15.15;72.26
22018;BME280;11173;51.050;7.108;2022-09-11T06:34:40;99769.19;;;15.15;72.23
22018;BME280;11173;51.050;7.108;2022-09-11T06:40:01;99776.72;;;15.18;72.28
22018;BME280;11173;51.050;7.108;2022-09-11T06:45:22;99775.16;;;15.17;72.43
22018;BME280;11173;51.050;7.108;2022-09-11T06:50:42;99779.09;;;15.20;72.62
22018;BME280;11173;51.050;7.108;2022-09-11T06:56:04;99768.66;;;15.20;73.08
22018;BME280;11173;51.050;7.108;2022-09-11T07:01:26;99779.97;;;15.42;72.98
22018;BME280;11173;51.050;7.108;2022-09-11T07:06:47;99781.84;;;15.58;73.19
22018;BME280;11173;51.050;7.108;2022-09-11T07:12:11;99781.38;;;15.73;73.29
22018;BME280;11173;51.050;7.108;2022-09-11T07:17:32;99779.34;;;15.86;73.00
22018;BME280;11173;51.050;7.108;2022-09-11T07:22:53;99787.38;;;15.97;72.16
22018;BME280;11173;51.050;7.108;2022-09-11T07:28:14;99786.94;;;15.98;71.43
22018;BME280;11173;51.050;7.108;2022-09-11T07:33:36;99782.47;;;15.88;71.29
22018;BME280;11173;51.050;7.108;2022-09-11T07:38:58;99800.22;;;15.85;71.32
22018;BME280;11173;51.050;7.108;2022-09-11T07:44:18;99791.25;;;15.77;71.67
22018;BME280;11173;51.050;7.108;2022-09-11T07:49:40;99806.97;;;15.75;71.72
22018;BME280;11173;51.050;7.108;2022-09-11T07:55:00;99810.69;;;15.71;72.06
22018;BME280;11173;51.050;7.108;2022-09-11T08:00:21;99814.41;;;15.68;71.60
22018;BME280;11173;51.050;7.108;2022-09-11T08:05:42;99825.63;;;15.68;71.67
22018;BME280;11173;51.050;7.108;2022-09-11T08:11:07;99815.00;;;15.63;71.65
22018;BME280;11173;51.050;7.108;2022-09-11T08:16:28;99827.09;;;15.60;71.71
22018;BME280;11173;51.050;7.108;2022-09-11T08:21:50;99834.66;;;15.63;72.02
22018;BME280;11173;51.050;7.108;2022-09-11T08:27:10;99830.69;;;15.61;72.22
22018;BME280;11173;51.050;7.108;2022-09-11T08:32:31;99847.00;;;15.66;72.15
22018;BME280;11173;51.050;7.108;2022-09-11T08:37:52;99854.81;;;15.71;72.73
22018;BME280;11173;51.050;7.108;2022-09-11T08:43:24;99871.91;;;15.77;72.31
22018;BME280;11173;51.050;7.108;2022-09-11T08:54:33;99878.56;;;15.70;71.25
22018;BME280;11173;51.050;7.108;2022-09-11T09:17:35;99892.03;;;15.49;72.59
22018;BME280;11173;51.050;7.108;2022-09-11T09:22:44;99886.41;;;15.62;72.96
22018;BME280;11173;51.050;7.108;2022-09-11T09:28:12;99886.41;;;15.75;72.61
22018;BME280;11173;51.050;7.108;2022-09-11T09:33:37;99905.16;;;15.91;72.72
22018;BME280;11173;51.050;7.108;2022-09-11T09:39:22;99905.63;;;16.02;72.21
22018;BME280;11173;51.050;7.108;2022-09-11T09:50:17;99917.81;;;16.34;72.88
22018;BME280;11173;51.050;7.108;2022-09-11T09:55:39;99913.47;;;16.55;73.43
22018;BME280;11173;51.050;7.108;2022-09-11T10:01:00;99912.13;;;16.82;73.71
22018;BME280;11173;51.050;7.108;2022-09-11T10:06:21;99910.50;;;17.16;73.12
22018;BME280;11173;51.050;7.108;2022-09-11T10:11:43;99907.38;;;17.45;72.19
22018;BME280;11173;51.050;7.108;2022-09-11T10:17:04;99911.06;;;17.64;70.72
22018;BME280;11173;51.050;7.108;2022-09-11T10:22:30;99902.78;;;17.69;70.38
22018;BME280;11173;51.050;7.108;2022-09-11T10:27:58;99895.31;;;17.76;70.23
22018;BME280;11173;51.050;7.108;2022-09-11T10:33:31;99899.56;;;17.89;70.17
22018;BME280;11173;51.050;7.108;2022-09-11T10:38:54;99907.56;;;18.00;69.73
22018;BME280;11173;51.050;7.108;2022-09-11T10:44:17;99908.25;;;18.14;70.40
22018;BME280;11173;51.050;7.108;2022-09-11T10:49:37;99891.50;;;18.38;70.18
22018;BME280;11173;51.050;7.108;2022-09-11T10:55:09;99906.91;;;18.74;69.31
22018;BME280;11173;51.050;7.108;2022-09-11T11:00:34;99904.81;;;18.93;68.60
22018;BME280;11173;51.050;7.108;2022-09-11T11:17:55;99909.53;;;19.05;67.79
22018;BME280;11173;51.050;7.108;2022-09-11T11:34:49;99895.31;;;19.42;66.99
22018;BME280;11173;51.050;7.108;2022-09-11T11:40:30;99905.41;;;19.34;65.40
22018;BME280;11173;51.050;7.108;2022-09-11T11:46:02;99890.69;;;19.02;65.29
22018;BME280;11173;51.050;7.108;2022-09-11T11:51:33;99908.28;;;18.78;66.04
22018;BME280;11173;51.050;7.108;2022-09-11T11:57:08;99902.19;;;18.61;65.98
22018;BME280;11173;51.050;7.108;2022-09-11T12:08:02;99897.63;;;18.55;66.54
22018;BME280;11173;51.050;7.108;2022-09-11T12:13:31;99897.03;;;18.60;65.97
22018;BME280;11173;51.050;7.108;2022-09-11T12:19:20;99908.47;;;18.65;65.69
22018;BME280;11173;51.050;7.108;2022-09-11T12:24:49;99905.66;;;18.65;65.66
22018;BME280;11173;51.050;7.108;2022-09-11T12:35:48;99883.06;;;18.75;64.89
22018;BME280;11173;51.050;7.108;2022-09-11T12:41:15;99889.34;;;18.79;64.97
22018;BME280;11173;51.050;7.108;2022-09-11T12:52:04;99880.69;;;19.01;65.78
22018;BME280;11173;51.050;7.108;2022-09-11T12:57:29;99868.38;;;19.32;65.07
22018;BME280;11173;51.050;7.108;2022-09-11T13:02:55;99867.69;;;19.46;63.10
22018;BME280;11173;51.050;7.108;2022-09-11T13:08:18;99860.47;;;19.45;62.91
22018;BME280;11173;51.050;7.108;2022-09-11T13:13:43;99862.72;;;19.32;61.40
22018;BME280;11173;51.050;7.108;2022-09-11T13:19:15;99859.47;;;19.15;62.71
22018;BME280;11173;51.050;7.108;2022-09-11T13:24:37;99842.88;;;18.98;63.73
22018;BME280;11173;51.050;7.108;2022-09-11T13:29:59;99835.00;;;19.12;64.25
22018;BME280;11173;51.050;7.108;2022-09-11T13:35:24;99837.00;;;19.30;63.58
22018;BME280;11173;51.050;7.108;2022-09-11T13:40:49;99839.28;;;19.40;60.89
22018;BME280;11173;51.050;7.108;2022-09-11T13:51:38;99832.59;;;19.28;61.28
22018;BME280;11173;51.050;7.108;2022-09-11T14:18:45;99815.63;;;19.38;62.39
22018;BME280;11173;51.050;7.108;2022-09-11T14:24:32;99822.91;;;19.54;61.97
22018;BME280;11173;51.050;7.108;2022-09-11T14:29:53;99804.66;;;19.64;60.83
22018;BME280;11173;51.050;7.108;2022-09-11T14:35:15;99796.13;;;19.73;60.46
22018;BME280;11173;51.050;7.108;2022-09-11T14:40:35;99796.91;;;19.74;60.44
22018;BME280;11173;51.050;7.108;2022-09-11T14:45:57;99795.03;;;19.71;60.73
22018;BME280;11173;51.050;7.108;2022-09-11T14:51:18;99796.00;;;19.67;61.07
22018;BME280;11173;51.050;7.108;2022-09-11T14:56:41;99796.00;;;19.67;59.81
22018;BME280;11173;51.050;7.108;2022-09-11T15:02:01;99797.75;;;19.65;60.60
22018;BME280;11173;51.050;7.108;2022-09-11T15:07:23;99790.03;;;19.65;60.34
22018;BME280;11173;51.050;7.108;2022-09-11T15:12:44;99773.56;;;19.64;59.86
22018;BME280;11173;51.050;7.108;2022-09-11T15:18:06;99769.78;;;19.67;60.62
22018;BME280;11173;51.050;7.108;2022-09-11T15:23:27;99758.97;;;19.65;57.80
22018;BME280;11173;51.050;7.108;2022-09-11T15:28:48;99762.56;;;19.66;58.47
22018;BME280;11173;51.050;7.108;2022-09-11T15:34:11;99754.56;;;19.64;58.81
22018;BME280;11173;51.050;7.108;2022-09-11T15:39:32;99748.44;;;19.66;59.08
22018;BME280;11173;51.050;7.108;2022-09-11T15:44:53;99754.06;;;19.66;58.41
22018;BME280;11173;51.050;7.108;2022-09-11T15:50:14;99753.59;;;19.67;58.12
22018;BME280;11173;51.050;7.108;2022-09-11T15:55:37;99751.69;;;19.74;59.13
22018;BME280;11173;51.050;7.108;2022-09-11T16:00:58;99755.88;;;19.78;59.10
22018;BME280;11173;51.050;7.108;2022-09-11T16:06:21;99753.34;;;19.80;59.61
22018;BME280;11173;51.050;7.108;2022-09-11T16:11:42;99751.31;;;19.81;57.92
22018;BME280;11173;51.050;7.108;2022-09-11T16:17:05;99754.63;;;19.79;58.74
22018;BME280;11173;51.050;7.108;2022-09-11T16:22:26;99755.88;;;19.78;58.75
22018;BME280;11173;51.050;7.108;2022-09-11T16:27:50;99752.28;;;19.78;58.92
22018;BME280;11173;51.050;7.108;2022-09-11T16:33:12;99737.06;;;19.75;58.82
22018;BME280;11173;51.050;7.108;2022-09-11T16:38:35;99737.25;;;19.72;58.59
22018;BME280;11173;51.050;7.108;2022-09-11T16:43:56;99746.06;;;19.64;58.66
22018;BME280;11173;51.050;7.108;2022-09-11T16:49:17;99739.91;;;19.51;58.13
22018;BME280;11173;51.050;7.108;2022-09-11T16:54:38;99743.75;;;19.39;58.76
22018;BME280;11173;51.050;7.108;2022-09-11T16:59:59;99736.44;;;19.23;58.32
22018;BME280;11173;51.050;7.108;2022-09-11T17:05:19;99736.34;;;19.08;58.72
22018;BME280;11173;51.050;7.108;2022-09-11T17:10:42;99738.28;;;18.93;58.73
22018;BME280;11173;51.050;7.108;2022-09-11T17:16:08;99734.28;;;18.75;58.98
22018;BME280;11173;51.050;7.108;2022-09-11T17:21:30;99729.19;;;18.55;58.64
22018;BME280;11173;51.050;7.108;2022-09-11T17:26:56;99730.91;;;18.34;58.65
22018;BME280;11173;51.050;7.108;2022-09-11T17:32:17;99737.81;;;18.15;58.86
22018;BME280;11173;51.050;7.108;2022-09-11T17:37:40;99727.19;;;17.91;59.47
22018;BME280;11173;51.050;7.108;2022-09-11T17:43:02;99723.56;;;17.72;59.75
22018;BME280;11173;51.050;7.108;2022-09-11T17:48:24;99730.56;;;17.49;59.75
22018;BME280;11173;51.050;7.108;2022-09-11T17:53:50;99723.34;;;17.29;59.96
22018;BME280;11173;51.050;7.108;2022-09-11T17:59:16;99720.94;;;17.09;60.28
22018;BME280;11173;51.050;7.108;2022-09-11T18:04:37;99726.97;;;16.89;60.48
22018;BME280;11173;51.050;7.108;2022-09-11T18:09:57;99730.56;;;16.68;60.74
22018;BME280;11173;51.050;7.108;2022-09-11T18:15:18;99740.16;;;16.48;61.04
22018;BME280;11173;51.050;7.108;2022-09-11T18:20:39;99742.66;;;16.24;61.83
22018;BME280;11173;51.050;7.108;2022-09-11T18:26:00;99749.84;;;16.03;61.85
22018;BME280;11173;51.050;7.108;2022-09-11T18:31:20;99744.66;;;15.80;62.80
22018;BME280;11173;51.050;7.108;2022-09-11T18:36:42;99755.53;;;15.65;63.34
22018;BME280;11173;51.050;7.108;2022-09-11T18:42:04;99744.91;;;15.47;63.60
22018;BME280;11173;51.050;7.108;2022-09-11T18:47:26;99760.19;;;15.46;64.04
22018;BME280;11173;51.050;7.108;2022-09-11T18:52:47;99751.66;;;15.37;63.89
22018;BME280;11173;51.050;7.108;2022-09-11T18:58:10;99733.75;;;15.21;65.15
22018;BME280;11173;51.050;7.108;2022-09-11T19:03:31;99746.75;;;15.15;65.85
22018;BME280;11173;51.050;7.108;2022-09-11T19:08:53;99736.56;;;15.08;65.47
22018;BME280;11173;51.050;7.108;2022-09-11T19:14:14;99730.47;;;14.97;65.84
22018;BME280;11173;51.050;7.108;2022-09-11T19:19:34;99737.22;;;14.87;66.77
22018;BME280;11173;51.050;7.108;2022-09-11T19:24:55;99738.75;;;14.75;67.44
22018;BME280;11173;51.050;7.108;2022-09-11T19:30:17;99726.84;;;14.58;67.56
22018;BME280;11173;51.050;7.108;2022-09-11T19:35:39;99723.13;;;14.48;67.22
22018;BME280;11173;51.050;7.108;2022-09-11T19:41:02;99745.22;;;14.46;67.10
22018;BME280;11173;51.050;7.108;2022-09-11T19:46:25;99762.22;;;14.39;67.91
22018;BME280;11173;51.050;7.108;2022-09-11T19:51:46;99745.41;;;14.26;68.88
22018;BME280;11173;51.050;7.108;2022-09-11T19:57:07;99748.72;;;14.21;69.74
22018;BME280;11173;51.050;7.108;2022-09-11T20:02:28;99762.19;;;14.14;70.82
22018;BME280;11173;51.050;7.108;2022-09-11T20:07:49;99755.16;;;14.05;70.66
22018;BME280;11173;51.050;7.108;2022-09-11T20:13:09;99756.84;;;14.03;71.37
22018;BME280;11173;51.050;7.108;2022-09-11T20:18:30;99750.66;;;13.95;71.30
22018;BME280;11173;51.050;7.108;2022-09-11T20:23:53;99758.03;;;13.89;72.53
22018;BME280;11173;51.050;7.108;2022-09-11T20:29:14;99756.97;;;13.83;71.77
22018;BME280;11173;51.050;7.108;2022-09-11T20:34:35;99749.19;;;13.74;72.16
22018;BME280;11173;51.050;7.108;2022-09-11T20:39:56;99745.72;;;13.70;72.27
22018;BME280;11173;51.050;7.108;2022-09-11T20:45:16;99753.41;;;13.66;72.56
22018;BME280;11173;51.050;7.108;2022-09-11T20:50:37;99750.78;;;13.59;73.00
22018;BME280;11173;51.050;7.108;2022-09-11T20:56:05;99744.50;;;13.55;73.77
22018;BME280;11173;51.050;7.108;2022-09-11T21:01:27;99743.72;;;13.54;73.48
22018;BME280;11173;51.050;7.108;2022-09-11T21:06:52;99735.75;;;13.52;74.20
22018;BME280;11173;51.050;7.108;2022-09-11T21:12:13;99724.13;;;13.54;73.73
22018;BME280;11173;51.050;7.108;2022-09-11T21:17:33;99729.16;;;13.59;73.85
22018;BME280;11173;51.050;7.108;2022-09-11T21:22:54;99711.50;;;13.62;73.18
22018;BME280;11173;51.050;7.108;2022-09-11T21:28:15;99713.19;;;13.60;74.17
22018;BME280;11173;51.050;7.108;2022-09-11T21:33:36;99729.44;;;13.65;73.75
22018;BME280;11173;51.050;7.108;2022-09-11T21:38:57;99721.13;;;13.61;73.34
22018;BME280;11173;51.050;7.108;2022-09-11T21:44:17;99714.66;;;13.64;73.68
22018;BME280;11173;51.050;7.108;2022-09-11T21:49:38;99690.88;;;13.56;73.52
22018;BME280;11173;51.050;7.108;2022-09-11T21:54:59;99706.44;;;13.57;73.69
22018;BME280;11173;51.050;7.108;2022-09-11T22:00:20;99711.25;;;13.57;73.41
22018;BME280;11173;51.050;7.108;2022-09-11T22:05:41;99721.59;;;13.60;73.94
22018;BME280;11173;51.050;7.108;2022-09-11T22:11:03;99725.84;;;13.64;73.44
22018;BME280;11173;51.050;7.108;2022-09-11T22:16:24;99707.47;;;13.63;73.04
22018;BME280;11173;51.050;7.108;2022-09-11T22:21:44;99708.28;;;13.64;73.45
22018;BME280;11173;51.050;7.108;2022-09-11T22:27:06;99705.56;;;13.60;73.15
22018;BME280;11173;51.050;7.108;2022-09-11T22:32:27;99722.78;;;13.59;72.88
22018;BME280;11173;51.050;7.108;2022-09-11T22:37:49;99712.56;;;13.52;73.04
22018;BME280;11173;51.050;7.108;2022-09-11T22:43:10;99698.41;;;13.43;73.44
22018;BME280;11173;51.050;7.108;2022-09-11T22:48:31;99697.38;;;13.37;73.70
22018;BME280;11173;51.050;7.108;2022-09-11T22:53:52;99701.06;;;13.33;73.66
22018;BME280;11173;51.050;7.108;2022-09-11T22:59:12;99694.75;;;13.29;73.87
22018;BME280;11173;51.050;7.108;2022-09-11T23:04:33;99696.75;;;13.29;73.59
22018;BME280;11173;51.050;7.108;2022-09-11T23:09:54;99686.91;;;13.24;73.14
22018;BME280;11173;51.050;7.108;2022-09-11T23:15:14;99692.31;;;13.15;73.40
22018;BME280;11173;51.050;7.108;2022-09-11T23:20:35;99685.66;;;13.09;73.89
22018;BME280;11173;51.050;7.108;2022-09-11T23:25:56;99680.28;;;13.02;73.67
22018;BME280;11173;51.050;7.108;2022-09-11T23:31:20;99679.38;;;13.05;73.69
22018;BME280;11173;51.050;7.108;2022-09-11T23:36:41;99685.88;;;13.02;73.84
22018;BME280;11173;51.050;7.108;2022-09-11T23:42:02;99686.03;;;12.95;74.12
22018;BME280;11173;51.050;7.108;2022-09-11T23:47:23;99689.25;;;12.93;73.96
22018;BME280;11173;51.050;7.108;2022-09-11T23:52:43;99690.13;;;12.90;74.40
22018;BME280;11173;51.050;7.108;2022-09-11T23:58:04;99661.22;;;12.80;74.35
